Terminal Aerodrome Forecast
Issued by NWS

Home | Current Version | Previous Version | Text Only | Print | Product List | Glossary On
Versions: 1 2 3 4 5 6 7 8 9 10 11 12 13 14
000
FTUS42 KKEY 200500
TAFMTH
TAF
KMTH 200528Z 2006/2106 09003KT P6SM FEW023
     FM201000 10007KT P6SM SCT025
     FM202000 12009KT P6SM SCT025 BKN080=

USA.gov is the U.S. government's official web portal to all federal, state and local government web resources and services.